Time;durP1;ratioP1;P1;durP2;ratioP2;P2;SDS_P1;SDS_P2;PMS_P1;PMS_P2;Temp;Humidity;BMP_temperature;BMP_pressure;BME280_temperature;BME280_humidity;BME280_pressure;Samples;Min_cycle;Max_cycle;Signal;HPM_P1;HPM_P2
2020/12/15 00:00:10;;;;;;;2.92;2.38;;;;;;;5.35;87.20;101080.69;4992874;28;20030;-77
2020/12/15 00:02:36;;;;;;;2.97;2.47;;;;;;;5.31;87.30;101074.84;5016483;28;20644;-77
2020/12/15 00:05:03;;;;;;;6.47;2.88;;;;;;;5.41;86.74;101075.09;5000183;28;20431;-76
2020/12/15 00:07:28;;;;;;;4.22;3.00;;;;;;;5.30;87.28;101060.19;5006540;28;20033;-76
2020/12/15 00:09:54;;;;;;;5.85;2.78;;;;;;;5.26;87.01;101059.56;5014412;28;20522;-77
2020/12/15 00:12:20;;;;;;;7.22;3.10;;;;;;;5.27;87.35;101065.59;5008855;28;20058;-77
2020/12/15 00:14:46;;;;;;;4.88;3.00;;;;;;;5.30;86.76;101054.16;5008158;28;20045;-79
2020/12/15 00:17:12;;;;;;;8.88;3.33;;;;;;;5.20;87.31;101051.38;4998538;28;20045;-76
2020/12/15 00:19:39;;;;;;;4.53;2.88;;;;;;;5.30;86.96;101055.00;5016118;28;20065;-78
2020/12/15 00:22:05;;;;;;;3.92;3.08;;;;;;;5.26;86.80;101056.16;4983741;28;20092;-78
2020/12/15 00:24:31;;;;;;;5.38;3.50;;;;;;;5.20;87.05;101054.78;4974739;28;20035;-77
2020/12/15 00:26:57;;;;;;;5.40;2.60;;;;;;;5.36;86.71;101059.78;4996337;28;20042;-77
2020/12/15 00:29:35;;;;;;;4.35;2.92;;;;;;;5.32;85.99;101052.28;4998802;28;20037;-76
2020/12/15 00:32:02;;;;;;;5.45;2.83;;;;;;;5.34;86.09;101061.66;5015125;28;20522;-77
2020/12/15 00:34:31;;;;;;;5.78;3.00;;;;;;;5.31;86.46;101064.44;4998117;28;20034;-78
2020/12/15 00:36:58;;;;;;;4.60;2.60;;;;;;;5.29;86.29;101055.09;4997035;28;20092;-77
2020/12/15 00:39:23;;;;;;;5.40;2.75;;;;;;;5.27;86.74;101068.19;4995175;28;20026;-75
2020/12/15 00:41:49;;;;;;;4.55;2.97;;;;;;;5.26;86.49;101066.56;4991852;28;20064;-76
2020/12/15 00:44:15;;;;;;;6.45;2.92;;;;;;;5.20;86.89;101065.19;5006369;28;20029;-76
2020/12/15 00:46:47;;;;;;;4.55;3.03;;;;;;;5.19;87.78;101070.50;4989016;28;20072;-77
2020/12/15 00:49:13;;;;;;;6.88;2.90;;;;;;;5.23;87.29;101066.75;4981500;28;20068;-76
2020/12/15 00:51:38;;;;;;;5.72;3.20;;;;;;;5.19;87.18;101050.50;4997399;28;20355;-76
2020/12/15 00:54:04;;;;;;;7.68;3.50;;;;;;;5.12;88.63;101059.66;4991378;28;20038;-76
2020/12/15 00:56:29;;;;;;;6.45;3.53;;;;;;;5.11;88.73;101050.22;5001264;28;20729;-76
2020/12/15 00:58:55;;;;;;;4.72;2.80;;;;;;;5.08;88.63;101037.41;4989657;28;20045;-76
2020/12/15 01:01:20;;;;;;;4.03;3.13;;;;;;;5.04;88.95;101039.38;5011055;28;20547;-76
2020/12/15 01:03:47;;;;;;;5.10;3.25;;;;;;;5.03;89.51;101037.72;5012387;28;20428;-76
2020/12/15 01:06:19;;;;;;;3.63;3.00;;;;;;;5.00;89.77;101022.31;5012116;28;20041;-76
2020/12/15 01:08:47;;;;;;;5.75;2.95;;;;;;;4.99;89.80;101031.06;5035452;28;20041;-76
2020/12/15 01:11:14;;;;;;;4.93;3.25;;;;;;;5.00;90.21;101018.91;5017414;28;20033;-77
2020/12/15 01:13:41;;;;;;;7.20;3.88;;;;;;;5.01;90.04;101017.94;5009509;28;20034;-75
2020/12/15 01:16:07;;;;;;;6.97;3.47;;;;;;;4.97;89.64;101009.56;5030125;28;20315;-78
2020/12/15 01:18:34;;;;;;;3.78;2.95;;;;;;;4.98;89.71;101012.97;5016594;28;20436;-75
2020/12/15 01:21:02;;;;;;;4.70;3.15;;;;;;;4.96;89.69;101004.44;5006669;28;20456;-76
2020/12/15 01:23:28;;;;;;;7.47;3.45;;;;;;;4.96;89.38;100989.69;5018658;28;20144;-77
2020/12/15 01:26:00;;;;;;;5.78;3.70;;;;;;;4.97;89.85;100993.94;5018912;28;20034;-78
2020/12/15 01:28:25;;;;;;;7.55;3.63;;;;;;;4.97;89.88;100993.94;5014480;28;20138;-75
2020/12/15 01:30:51;;;;;;;6.10;3.50;;;;;;;4.95;89.66;100984.56;4990557;28;20431;-77
2020/12/15 01:33:19;;;;;;;6.10;3.97;;;;;;;4.96;90.26;100986.25;5029947;28;20060;-77
2020/12/15 01:36:08;;;;;;;10.70;3.85;;;;;;;4.96;89.93;100973.25;5015676;28;20047;-77
2020/12/15 01:38:43;;;;;;;5.10;3.80;;;;;;;4.94;90.19;100975.94;5014620;28;20064;-76
2020/12/15 01:41:11;;;;;;;9.35;3.35;;;;;;;4.98;89.94;100972.19;4998360;28;20121;-78
2020/12/15 01:43:36;;;;;;;5.18;3.80;;;;;;;5.00;89.33;100970.34;5007256;28;20096;-76
2020/12/15 01:46:02;;;;;;;6.82;4.10;;;;;;;4.98;89.65;100960.97;5006759;28;20108;-79
2020/12/15 01:48:30;;;;;;;7.95;3.80;;;;;;;4.97;90.32;100965.34;5004800;28;20570;-78
2020/12/15 01:50:58;;;;;;;5.80;3.30;;;;;;;4.93;90.34;100958.69;5042627;28;20033;-76
2020/12/15 01:53:24;;;;;;;6.30;3.97;;;;;;;4.89;90.16;100949.44;5003326;28;20046;-78
2020/12/15 01:55:51;;;;;;;9.25;4.03;;;;;;;4.92;90.05;100948.41;5010831;28;20077;-78
2020/12/15 01:58:18;;;;;;;5.03;4.00;;;;;;;4.88;90.83;100940.81;5043744;28;20049;-77
2020/12/15 02:00:53;;;;;;;6.68;4.30;;;;;;;4.91;90.43;100938.94;5006372;28;20041;-77
2020/12/15 02:03:21;;;;;;;7.72;4.18;;;;;;;4.90;90.91;100940.72;5046123;28;20029;-76
2020/12/15 02:06:05;;;;;;;7.60;4.32;;;;;;;4.93;90.52;100934.47;5042155;28;20127;-79
2020/12/15 02:08:44;;;;;;;8.27;4.55;;;;;;;4.88;91.33;100940.81;5002387;28;20040;-76
2020/12/15 02:11:11;;;;;;;7.10;4.70;;;;;;;4.82;91.72;100932.59;5016867;28;20033;-77
2020/12/15 02:13:37;;;;;;;8.00;4.40;;;;;;;4.78;92.53;100936.34;5032060;28;20400;-77
2020/12/15 02:16:08;;;;;;;8.27;4.28;;;;;;;4.85;91.69;100942.78;5015605;28;20029;-77
2020/12/15 02:18:34;;;;;;;5.68;4.18;;;;;;;4.88;91.46;100946.00;4994149;28;20049;-77
2020/12/15 02:21:08;;;;;;;7.95;4.47;;;;;;;4.92;91.54;100938.00;4979681;28;20038;-77
2020/12/15 02:23:52;;;;;;;6.45;4.13;;;;;;;4.96;90.29;100929.88;4975040;28;20057;-76
2020/12/15 02:26:30;;;;;;;6.18;4.55;;;;;;;4.95;90.26;100930.00;4967057;28;20527;-77
2020/12/15 02:28:56;;;;;;;4.53;4.13;;;;;;;4.92;90.83;100922.41;4989908;28;20039;-77
2020/12/15 02:31:21;;;;;;;6.03;4.20;;;;;;;4.93;90.66;100911.88;5000941;28;20038;-79
2020/12/15 02:33:48;;;;;;;5.82;4.15;;;;;;;4.96;90.57;100914.28;4988683;28;20041;-76
2020/12/15 02:36:15;;;;;;;6.03;4.07;;;;;;;4.93;90.50;100898.88;4997136;28;20042;-77
2020/12/15 02:39:05;;;;;;;;;;;;;;;4.92;90.33;100905.03;4973448;28;20077;-77
2020/12/15 02:41:31;;;;;;;6.47;4.60;;;;;;;4.90;90.31;100890.47;4969614;28;19985;-76
2020/12/15 02:43:59;;;;;;;6.10;5.10;;;;;;;4.95;90.38;100899.63;4981517;28;20432;-78
2020/12/15 02:46:25;;;;;;;8.45;5.13;;;;;;;4.92;90.71;100894.66;4959966;28;20037;-76
2020/12/15 02:48:52;;;;;;;7.97;4.75;;;;;;;4.94;90.76;100903.16;4974818;28;20507;-77
2020/12/15 02:51:19;;;;;;;6.65;4.47;;;;;;;4.91;91.14;100912.94;4983769;28;20176;-79
2020/12/15 02:54:12;;;;;;;6.00;4.43;;;;;;;4.92;91.21;100925.84;4982252;28;20031;-77
2020/12/15 02:56:39;;;;;;;8.07;6.07;;;;;;;4.87;91.39;100914.91;5011969;28;20085;-77
2020/12/15 02:59:06;;;;;;;7.43;5.07;;;;;;;4.89;91.00;100926.03;4993989;28;20046;-75
2020/12/15 03:01:41;;;;;;;7.82;5.35;;;;;;;4.96;91.29;100921.25;4977677;28;20165;-76
2020/12/15 03:04:08;;;;;;;10.02;5.03;;;;;;;4.96;90.86;100918.66;4987276;28;20041;-76
2020/12/15 03:06:38;;;;;;;7.85;5.32;;;;;;;4.96;91.32;100936.88;4977264;28;20117;-77
2020/12/15 03:09:09;;;;;;;6.25;5.07;;;;;;;4.82;91.87;100938.63;4997578;28;20392;-76
2020/12/15 03:11:37;;;;;;;11.38;5.15;;;;;;;4.79;92.57;100943.22;4977548;28;20035;-78
2020/12/15 03:14:10;;;;;;;6.00;4.50;;;;;;;4.71;93.10;100941.13;4974767;28;20057;-76
2020/12/15 03:16:36;;;;;;;5.75;4.53;;;;;;;4.73;92.69;100943.59;4992566;28;20449;-77
2020/12/15 03:19:02;;;;;;;5.93;4.53;;;;;;;4.72;92.83;100941.97;5018352;28;20072;-77
2020/12/15 03:21:28;;;;;;;6.78;4.68;;;;;;;4.72;92.37;100947.16;5019580;28;20037;-77
2020/12/15 03:23:55;;;;;;;6.13;4.82;;;;;;;4.72;92.35;100949.75;4993611;28;20054;-77
2020/12/15 03:26:23;;;;;;;5.80;4.80;;;;;;;4.68;93.07;100955.16;4980365;28;20499;-76
2020/12/15 03:28:49;;;;;;;7.45;4.78;;;;;;;4.63;93.45;100959.00;4997257;28;20042;-77
2020/12/15 03:31:14;;;;;;;5.22;4.10;;;;;;;4.69;93.28;100956.00;4999485;28;20088;-77
2020/12/15 03:33:40;;;;;;;5.30;4.78;;;;;;;4.65;92.89;100947.56;5015150;28;20033;-77
2020/12/15 03:36:09;;;;;;;6.28;4.38;;;;;;;4.67;92.28;100948.31;5010978;28;20516;-75
2020/12/15 03:38:38;;;;;;;6.15;4.78;;;;;;;4.68;92.73;100949.94;4963972;28;20039;-76
2020/12/15 03:41:04;;;;;;;6.43;4.55;;;;;;;4.72;92.30;100944.56;4963523;28;20054;-77
2020/12/15 03:43:37;;;;;;;10.38;4.50;;;;;;;4.73;92.39;100941.84;4994523;28;20027;-76
2020/12/15 03:46:16;;;;;;;8.13;4.57;;;;;;;4.74;92.26;100938.31;5013242;28;20110;-76
2020/12/15 03:48:42;;;;;;;7.20;4.97;;;;;;;4.75;92.28;100928.78;4999670;28;20514;-78
2020/12/15 03:51:08;;;;;;;5.93;4.60;;;;;;;4.81;91.82;100931.75;4997308;28;20040;-78
2020/12/15 03:53:52;;;;;;;6.82;4.90;;;;;;;4.78;91.14;100928.53;4993749;28;20411;-77
2020/12/15 03:56:19;;;;;;;7.00;5.00;;;;;;;4.79;91.55;100919.81;5003918;28;20038;-80
2020/12/15 03:58:45;;;;;;;7.97;4.70;;;;;;;4.88;91.01;100925.22;4984755;28;20507;-77
2020/12/15 04:01:11;;;;;;;6.50;4.57;;;;;;;4.85;90.68;100941.00;4999135;28;20120;-78
2020/12/15 04:03:37;;;;;;;4.90;4.40;;;;;;;4.80;91.54;100943.13;5010097;28;20057;-77
2020/12/15 04:06:09;;;;;;;5.63;4.57;;;;;;;4.84;91.62;100946.31;4998512;28;20040;-78
2020/12/15 04:08:41;;;;;;;6.00;5.15;;;;;;;4.87;90.68;100946.09;4996454;28;20404;-76
2020/12/15 04:11:07;;;;;;;8.40;5.18;;;;;;;4.81;91.16;100943.94;4996331;28;20027;-76
2020/12/15 04:13:44;;;;;;;7.00;5.10;;;;;;;4.83;91.04;100955.88;5000202;28;20401;-78
2020/12/15 04:16:12;;;;;;;7.25;5.20;;;;;;;4.82;91.86;100948.19;5024166;28;20099;-77
2020/12/15 04:18:47;;;;;;;7.40;5.57;;;;;;;4.77;91.70;100942.50;4972037;28;20054;-76
2020/12/15 04:21:16;;;;;;;7.28;5.03;;;;;;;4.75;91.64;100942.59;4999768;28;20042;-76
2020/12/15 04:23:43;;;;;;;7.07;4.88;;;;;;;4.71;91.42;100941.13;4965626;28;20042;-78
2020/12/15 04:26:09;;;;;;;8.68;5.80;;;;;;;4.77;91.51;100937.28;4998916;28;20038;-76
2020/12/15 04:28:44;;;;;;;7.85;6.03;;;;;;;4.76;91.62;100944.22;5004422;28;20050;-77
2020/12/15 04:31:09;;;;;;;9.13;5.78;;;;;;;4.82;90.96;100938.63;4982444;28;20034;-77
2020/12/15 04:33:35;;;;;;;7.05;6.22;;;;;;;4.76;91.61;100943.41;4985556;28;20829;-76
2020/12/15 04:36:00;;;;;;;7.63;5.20;;;;;;;4.78;91.83;100944.97;4965247;28;20045;-78
2020/12/15 04:38:28;;;;;;;7.72;4.80;;;;;;;4.76;91.70;100948.59;4948384;28;20479;-76
2020/12/15 04:41:00;;;;;;;11.98;5.50;;;;;;;4.77;91.70;100948.50;4971242;28;20065;-77
2020/12/15 04:43:33;;;;;;;10.98;5.53;;;;;;;4.77;91.43;100947.69;4983242;28;20042;-78
2020/12/15 04:46:02;;;;;;;8.38;5.68;;;;;;;4.74;91.51;100943.50;5003199;28;20034;-76
2020/12/15 04:48:34;;;;;;;11.70;5.50;;;;;;;4.76;91.33;100933.84;4982492;28;20041;-77
2020/12/15 04:51:12;;;;;;;8.15;5.65;;;;;;;4.81;91.03;100951.72;4981615;28;20136;-78
2020/12/15 04:53:53;;;;;;;6.78;5.50;;;;;;;4.81;91.05;100942.16;5000096;28;20599;-77
2020/12/15 04:56:42;;;;;;;7.53;5.25;;;;;;;4.79;91.41;100943.22;5010204;28;20046;-75
2020/12/15 04:59:23;;;;;;;7.47;5.30;;;;;;;4.77;91.81;100945.91;4972392;28;20633;-76
2020/12/15 05:01:55;;;;;;;8.05;6.18;;;;;;;4.71;91.81;100948.06;4996915;28;20052;-77
2020/12/15 05:04:25;;;;;;;7.22;5.63;;;;;;;4.71;92.34;100954.13;4994864;28;20038;-78
2020/12/15 05:06:59;;;;;;;7.93;6.15;;;;;;;4.69;92.02;100945.59;4968747;28;20038;-76
2020/12/15 05:09:42;;;;;;;6.82;4.70;;;;;;;4.67;92.49;100943.09;4993388;28;20042;-78
2020/12/15 05:12:08;;;;;;;9.20;5.63;;;;;;;4.66;92.42;100949.22;4959805;28;20436;-76
2020/12/15 05:14:39;;;;;;;7.72;6.03;;;;;;;4.60;92.52;100943.63;4982365;28;20037;-76
2020/12/15 05:17:04;;;;;;;6.88;5.13;;;;;;;4.62;92.51;100946.94;4999185;28;20026;-76
2020/12/15 05:19:47;;;;;;;9.18;5.72;;;;;;;4.62;92.90;100947.78;5000716;28;20488;-76
2020/12/15 05:22:23;;;;;;;6.10;5.50;;;;;;;4.64;92.84;100950.28;5003376;28;20037;-77
2020/12/15 05:24:51;;;;;;;6.88;5.10;;;;;;;4.59;92.45;100934.97;4981187;28;20033;-76
2020/12/15 05:27:30;;;;;;;6.20;5.10;;;;;;;4.61;93.00;100946.09;4981714;28;20495;-77
2020/12/15 05:30:10;;;;;;;7.55;5.78;;;;;;;4.63;92.65;100961.59;4981747;28;20026;-76
2020/12/15 05:33:13;;;;;;;8.68;5.35;;;;;;;4.59;93.22;100960.13;4984896;28;20058;-78
2020/12/15 05:35:55;;;;;;;10.73;6.10;;;;;;;4.65;93.02;100968.38;4979458;28;20026;-78
2020/12/15 05:38:33;;;;;;;8.85;5.68;;;;;;;4.72;92.92;100967.94;4967316;28;20488;-77
2020/12/15 05:41:05;;;;;;;7.40;6.38;;;;;;;4.65;92.58;100950.19;4969437;28;20053;-80
2020/12/15 05:43:45;;;;;;;6.00;5.22;;;;;;;4.68;93.36;100955.16;4992424;28;20034;-79
2020/12/15 05:46:12;;;;;;;8.15;6.15;;;;;;;4.66;93.60;100956.19;5008331;28;20037;-77
2020/12/15 05:48:39;;;;;;;6.90;5.20;;;;;;;4.61;93.79;100956.47;4986313;28;20045;-78
2020/12/15 05:51:04;;;;;;;7.72;5.60;;;;;;;4.64;93.51;100961.50;5013500;28;20125;-77
2020/12/15 05:53:30;;;;;;;9.65;6.47;;;;;;;4.65;93.88;100965.75;5004458;28;20165;-77
2020/12/15 05:55:56;;;;;;;6.93;4.90;;;;;;;4.67;93.84;100958.69;4998529;28;20042;-78
2020/12/15 05:58:21;;;;;;;8.07;5.45;;;;;;;4.70;93.69;100959.41;5027000;28;20037;-77
2020/12/15 06:00:47;;;;;;;5.60;4.70;;;;;;;4.71;93.33;100959.31;5000862;28;20089;-78
2020/12/15 06:03:12;;;;;;;5.88;5.20;;;;;;;4.72;93.32;100960.16;5020239;28;20039;-76
2020/12/15 06:05:38;;;;;;;6.57;5.57;;;;;;;4.71;93.26;100964.53;4983157;28;20045;-76
2020/12/15 06:08:05;;;;;;;6.95;5.70;;;;;;;4.73;93.46;100965.25;4986582;28;20512;-76
2020/12/15 06:10:32;;;;;;;7.68;5.60;;;;;;;4.74;93.63;100958.28;5004748;28;20119;-74
2020/12/15 06:13:00;;;;;;;10.20;6.43;;;;;;;4.77;93.47;100963.28;5018055;28;20039;-76
2020/12/15 06:15:27;;;;;;;6.15;4.90;;;;;;;4.77;93.76;100960.69;4990544;28;20038;-76
2020/12/15 06:17:55;;;;;;;6.07;4.65;;;;;;;4.79;93.73;100959.63;4985185;28;20041;-75
2020/12/15 06:20:21;;;;;;;11.70;6.60;;;;;;;4.81;93.47;100959.53;4979747;28;20522;-75
2020/12/15 06:22:54;;;;;;;7.05;5.78;;;;;;;4.85;93.48;100959.19;4979642;28;20065;-76
2020/12/15 06:25:25;;;;;;;7.30;6.05;;;;;;;4.87;93.37;100953.91;4996211;28;20525;-77
2020/12/15 06:28:18;;;;;;;8.85;6.38;;;;;;;4.89;92.92;100954.63;4992709;28;20065;-76
2020/12/15 06:30:45;;;;;;;8.32;6.53;;;;;;;4.93;92.81;100943.09;4997078;28;20050;-76
2020/12/15 06:33:14;;;;;;;9.15;6.65;;;;;;;4.93;92.86;100942.25;5007362;28;20034;-76
2020/12/15 06:35:44;;;;;;;9.82;6.55;;;;;;;4.93;93.04;100935.28;4969915;28;20045;-78
2020/12/15 06:38:18;;;;;;;9.98;7.15;;;;;;;4.94;93.33;100943.94;4997209;28;20045;-78
2020/12/15 06:40:46;;;;;;;11.85;6.80;;;;;;;4.93;93.29;100934.47;4954848;28;20042;-78
2020/12/15 06:43:18;;;;;;;16.98;7.10;;;;;;;4.91;93.39;100928.53;4983452;28;20683;-76
2020/12/15 06:45:44;;;;;;;14.30;7.82;;;;;;;4.94;93.77;100933.53;4972920;28;20125;-78
2020/12/15 06:48:14;;;;;;;17.42;8.23;;;;;;;4.97;93.30;100933.31;4986532;28;20171;-79
2020/12/15 06:50:41;;;;;;;15.82;7.00;;;;;;;4.98;93.79;100935.81;4993879;28;20774;-77
2020/12/15 06:53:09;;;;;;;12.48;7.38;;;;;;;5.01;93.93;100938.22;4994667;28;20031;-79
2020/12/15 06:55:34;;;;;;;14.20;7.22;;;;;;;4.98;93.85;100932.38;5008124;28;20529;-77
2020/12/15 06:58:00;;;;;;;17.17;7.80;;;;;;;4.98;93.99;100941.00;5016236;28;20050;-78
2020/12/15 07:00:37;;;;;;;15.88;7.72;;;;;;;5.04;93.96;100942.34;4989903;28;20022;-78
2020/12/15 07:03:03;;;;;;;10.38;7.95;;;;;;;5.00;93.79;100946.09;4972118;28;20030;-77
2020/12/15 07:05:29;;;;;;;12.77;7.78;;;;;;;5.01;93.86;100958.16;4997542;28;20045;-77
2020/12/15 07:08:06;;;;;;;13.25;7.43;;;;;;;4.95;94.83;100966.38;4978219;28;20043;-75
2020/12/15 07:10:33;;;;;;;12.85;7.03;;;;;;;4.95;94.73;100964.59;4991718;28;20073;-76
2020/12/15 07:13:01;;;;;;;11.00;6.97;;;;;;;4.96;94.34;100966.28;5009448;28;20125;-75
2020/12/15 07:15:29;;;;;;;20.40;9.65;;;;;;;4.97;94.83;100977.50;4987688;28;20082;-76
2020/12/15 07:17:55;;;;;;;10.98;7.53;;;;;;;4.95;94.82;100977.59;4989724;28;20061;-77
2020/12/15 07:20:22;;;;;;;7.38;6.25;;;;;;;4.95;95.40;100975.00;4982037;28;20479;-74
2020/12/15 07:22:51;;;;;;;8.05;5.93;;;;;;;4.96;94.97;100978.47;4982059;28;20500;-77
2020/12/15 07:25:17;;;;;;;10.25;5.93;;;;;;;4.94;94.83;100981.16;4997836;28;20043;-77
2020/12/15 07:27:44;;;;;;;10.80;6.40;;;;;;;4.93;95.27;100982.06;4996982;28;20038;-77
2020/12/15 07:30:18;;;;;;;9.68;6.60;;;;;;;4.95;94.82;100992.38;4994905;28;20034;-76
2020/12/15 07:32:45;;;;;;;13.75;8.20;;;;;;;4.96;95.38;100979.28;4971517;28;20038;-77
2020/12/15 07:35:22;;;;;;;8.20;6.35;;;;;;;4.98;95.55;100992.19;5018817;28;20045;-78
2020/12/15 07:37:51;;;;;;;8.40;6.70;;;;;;;4.93;95.59;100987.28;5016958;28;20026;-76
2020/12/15 07:40:18;;;;;;;10.75;7.15;;;;;;;5.00;95.60;100983.31;5015734;28;20030;-76
2020/12/15 07:43:01;;;;;;;10.20;7.50;;;;;;;5.02;95.33;100989.25;4989192;28;20485;-76
2020/12/15 07:45:29;;;;;;;10.30;7.28;;;;;;;4.99;95.46;100984.28;4996773;28;20485;-76
2020/12/15 07:47:55;;;;;;;12.75;8.00;;;;;;;5.05;95.65;100988.22;4964177;28;20130;-76
2020/12/15 07:50:28;;;;;;;16.33;8.32;;;;;;;5.13;95.09;100995.50;4977041;28;20082;-76
2020/12/15 07:52:56;;;;;;;10.25;7.95;;;;;;;5.15;95.11;100993.63;4987153;28;20507;-77
2020/12/15 07:55:23;;;;;;;10.45;8.07;;;;;;;5.13;95.26;100991.13;5013940;28;20046;-76
2020/12/15 07:57:49;;;;;;;11.52;7.18;;;;;;;5.16;95.30;100990.94;4996587;28;20042;-76
2020/12/15 08:00:17;;;;;;;11.18;8.82;;;;;;;5.15;95.52;100991.84;4991374;28;20042;-79
2020/12/15 08:02:44;;;;;;;10.45;8.57;;;;;;;5.18;95.77;100991.66;5014707;28;20030;-78
2020/12/15 08:05:09;;;;;;;14.35;9.30;;;;;;;5.21;95.75;101001.81;4993600;28;20045;-78
2020/12/15 08:07:50;;;;;;;13.07;8.88;;;;;;;5.17;95.63;100997.78;4998755;28;20042;-76
2020/12/15 08:10:22;;;;;;;11.57;8.38;;;;;;;5.19;95.40;100990.69;4979644;28;20042;-77
2020/12/15 08:12:48;;;;;;;12.87;9.13;;;;;;;5.22;95.42;100987.91;4982490;28;20050;-76
2020/12/15 08:15:14;;;;;;;13.23;10.63;;;;;;;5.28;95.40;100993.63;5003001;28;20268;-77
2020/12/15 08:17:44;;;;;;;18.63;9.77;;;;;;;5.25;95.32;100985.09;5002787;28;20057;-77
2020/12/15 08:20:10;;;;;;;11.35;9.13;;;;;;;5.38;94.68;100985.06;5000098;28;20165;-78
2020/12/15 08:22:39;;;;;;;11.75;7.38;;;;;;;5.40;95.12;100990.97;4983332;28;20050;-77
2020/12/15 08:25:07;;;;;;;13.57;10.30;;;;;;;5.40;95.21;101001.38;4999273;28;20037;-76
2020/12/15 08:27:34;;;;;;;14.63;9.63;;;;;;;5.41;95.53;101002.25;4982527;28;20042;-76
2020/12/15 08:30:00;;;;;;;13.32;8.48;;;;;;;5.50;95.11;101000.75;4979988;28;20053;-76
2020/12/15 08:32:30;;;;;;;12.35;8.93;;;;;;;5.44;95.15;100996.81;4971825;28;20120;-78
2020/12/15 08:35:00;;;;;;;13.20;9.95;;;;;;;5.42;95.27;100996.91;5018809;28;20091;-78
2020/12/15 08:37:28;;;;;;;11.30;8.15;;;;;;;5.44;95.04;100995.06;5003803;28;20033;-77
2020/12/15 08:39:54;;;;;;;13.52;9.55;;;;;;;5.49;95.63;101006.91;5002308;28;20070;-76
2020/12/15 08:42:20;;;;;;;10.88;8.35;;;;;;;5.44;95.20;100999.41;5012504;28;20110;-78
2020/12/15 08:44:47;;;;;;;11.98;9.38;;;;;;;5.46;95.03;100993.16;5006923;28;20038;-80
2020/12/15 08:47:19;;;;;;;11.82;8.25;;;;;;;5.53;95.24;101005.75;4999109;28;20038;-76
2020/12/15 08:49:45;;;;;;;9.13;8.00;;;;;;;5.54;95.44;101004.78;4982210;28;20048;-76
2020/12/15 08:52:21;;;;;;;12.15;7.93;;;;;;;5.52;95.44;101002.31;4987818;28;20034;-77
2020/12/15 08:54:46;;;;;;;13.75;9.40;;;;;;;5.53;95.55;101008.34;5001147;28;20100;-78
2020/12/15 08:57:16;;;;;;;13.52;9.40;;;;;;;5.50;95.35;101009.41;5018240;28;20038;-75
2020/12/15 08:59:42;;;;;;;14.32;9.68;;;;;;;5.54;95.71;101010.00;4992499;28;20034;-76
2020/12/15 09:02:12;;;;;;;12.90;9.15;;;;;;;5.54;95.81;101013.44;5000944;28;20072;-75
2020/12/15 09:04:39;;;;;;;14.60;9.50;;;;;;;5.55;95.87;101011.66;5003808;28;20544;-76
2020/12/15 09:07:17;;;;;;;13.73;9.77;;;;;;;5.58;95.05;101008.88;4998502;28;20132;-76
2020/12/15 09:09:43;;;;;;;12.98;9.38;;;;;;;5.55;95.49;101009.06;4979084;28;20097;-76
2020/12/15 09:12:10;;;;;;;12.70;10.02;;;;;;;5.56;95.57;101003.75;5004059;28;20046;-76
2020/12/15 09:14:36;;;;;;;14.07;10.52;;;;;;;5.55;95.68;101006.47;4995249;28;20030;-75
2020/12/15 09:17:01;;;;;;;14.77;10.63;;;;;;;5.58;95.68;101019.28;5023486;28;20046;-78
2020/12/15 09:19:27;;;;;;;12.13;10.05;;;;;;;5.58;95.97;101019.28;5003370;28;20030;-76
2020/12/15 09:22:04;;;;;;;12.90;10.00;;;;;;;5.56;96.13;101021.97;4998104;28;20030;-76
2020/12/15 09:24:29;;;;;;;14.55;9.98;;;;;;;5.65;95.45;101020.47;4997092;28;20065;-76
2020/12/15 09:26:55;;;;;;;15.55;9.70;;;;;;;5.69;95.59;101011.53;4982197;28;20050;-76
2020/12/15 09:29:21;;;;;;;23.02;13.15;;;;;;;5.67;95.66;101013.44;4960023;28;20177;-77
2020/12/15 09:31:55;;;;;;;14.07;10.40;;;;;;;5.72;95.19;101016.50;4988648;28;20117;-78
2020/12/15 09:34:21;;;;;;;16.50;11.90;;;;;;;5.66;95.28;101014.34;4983996;28;20037;-78
2020/12/15 09:36:56;;;;;;;16.63;11.70;;;;;;;5.76;95.79;101027.53;5000188;28;20044;-78
2020/12/15 09:39:31;;;;;;;13.98;10.90;;;;;;;5.73;95.14;101027.78;5015550;28;20053;-77
2020/12/15 09:42:01;;;;;;;17.92;10.65;;;;;;;5.78;95.14;101026.50;5005801;28;20035;-76
2020/12/15 09:44:28;;;;;;;18.75;12.50;;;;;;;5.78;95.50;101026.50;4983872;28;20034;-77
2020/12/15 09:46:53;;;;;;;18.95;11.60;;;;;;;5.84;95.17;101031.28;4996912;28;20157;-77
2020/12/15 09:49:19;;;;;;;20.95;12.65;;;;;;;5.93;95.05;101028.94;4964875;28;20535;-74
2020/12/15 09:51:45;;;;;;;16.85;11.40;;;;;;;5.96;94.67;101013.97;4984310;28;20132;-77
2020/12/15 09:54:10;;;;;;;18.02;12.07;;;;;;;6.06;94.68;101021.94;5005065;28;20034;-76
2020/12/15 09:56:42;;;;;;;18.83;13.18;;;;;;;6.17;95.12;101024.63;4978399;28;20042;-76
2020/12/15 09:59:08;;;;;;;17.00;12.07;;;;;;;6.24;94.79;101015.41;4971197;28;20045;-76
2020/12/15 10:01:35;;;;;;;14.82;11.48;;;;;;;6.31;94.33;101020.19;4982019;28;20045;-75
2020/12/15 10:04:01;;;;;;;16.55;11.88;;;;;;;6.30;94.13;101018.53;4997611;28;20089;-77
2020/12/15 10:06:27;;;;;;;17.23;11.63;;;;;;;6.31;94.05;101012.34;5001257;28;20030;-77
2020/12/15 10:08:53;;;;;;;18.13;10.98;;;;;;;6.29;94.30;101003.81;4978806;28;20038;-76
2020/12/15 10:11:18;;;;;;;13.02;10.27;;;;;;;6.36;93.93;100995.44;4999662;28;20088;-77
2020/12/15 10:13:45;;;;;;;15.25;11.95;;;;;;;6.45;93.69;101006.97;4982509;28;20066;-76
2020/12/15 10:16:10;;;;;;;15.70;10.65;;;;;;;6.63;93.40;101016.03;4985806;28;20042;-76
2020/12/15 10:18:36;;;;;;;17.55;11.30;;;;;;;6.69;92.84;101019.16;4972811;28;20448;-76
2020/12/15 10:21:02;;;;;;;14.98;10.88;;;;;;;6.77;92.75;101028.03;4997676;28;20041;-76
2020/12/15 10:23:28;;;;;;;16.60;11.65;;;;;;;6.75;93.53;101019.50;4997796;28;20133;-77
2020/12/15 10:25:54;;;;;;;16.40;10.10;;;;;;;6.83;92.61;101031.97;4998352;28;20054;-76
2020/12/15 10:28:19;;;;;;;13.68;10.65;;;;;;;6.86;91.90;101029.13;4983941;28;20038;-75
2020/12/15 10:30:44;;;;;;;14.68;10.27;;;;;;;6.79;91.89;101026.16;4971893;28;20049;-76
2020/12/15 10:33:11;;;;;;;14.52;10.77;;;;;;;6.89;93.37;101025.47;4991068;28;20172;-77
2020/12/15 10:35:37;;;;;;;18.45;10.48;;;;;;;6.89;92.10;101033.28;4995152;28;20042;-77
2020/12/15 10:38:02;;;;;;;16.67;10.00;;;;;;;6.93;91.91;101032.09;4987374;28;20121;-76
2020/12/15 10:40:28;;;;;;;12.55;9.57;;;;;;;6.84;91.21;101018.00;4990960;28;20038;-78
2020/12/15 10:42:53;;;;;;;15.02;10.70;;;;;;;6.87;93.20;101019.53;5022194;28;20060;-77
2020/12/15 10:45:19;;;;;;;17.05;10.57;;;;;;;6.85;92.51;101024.03;5002735;28;20050;-76
2020/12/15 10:47:44;;;;;;;13.18;10.20;;;;;;;6.89;92.23;101028.88;4983083;28;20034;-75
2020/12/15 10:50:10;;;;;;;13.27;10.13;;;;;;;6.90;92.18;101027.13;4978147;28;20039;-77
2020/12/15 10:52:36;;;;;;;15.10;10.55;;;;;;;6.82;92.64;101031.13;5011290;28;20069;-77
2020/12/15 10:55:03;;;;;;;13.52;10.65;;;;;;;6.77;92.69;101033.25;4990309;28;20438;-77
2020/12/15 10:57:29;;;;;;;16.33;10.65;;;;;;;6.76;92.67;101033.38;4987596;28;20049;-77
2020/12/15 10:59:54;;;;;;;15.75;10.35;;;;;;;6.72;92.92;101016.28;4985891;28;20038;-76
2020/12/15 11:02:20;;;;;;;15.32;11.05;;;;;;;6.76;93.25;101030.75;4989336;28;20120;-77
2020/12/15 11:04:45;;;;;;;14.90;10.35;;;;;;;6.78;93.26;101034.94;5000883;28;20065;-75
2020/12/15 11:07:11;;;;;;;14.88;10.98;;;;;;;6.78;93.14;101044.50;5014004;28;20036;-77
2020/12/15 11:09:36;;;;;;;15.23;11.45;;;;;;;6.80;93.17;101050.47;5009591;28;20034;-77
2020/12/15 11:12:02;;;;;;;14.07;10.52;;;;;;;6.83;92.98;101058.03;5001657;28;20409;-76
2020/12/15 11:14:28;;;;;;;16.38;11.13;;;;;;;6.90;93.40;101054.03;4977836;28;20035;-78
2020/12/15 11:16:53;;;;;;;13.45;9.55;;;;;;;6.89;92.84;101048.94;4994271;28;20038;-77
2020/12/15 11:19:20;;;;;;;14.25;10.77;;;;;;;6.85;93.21;101035.28;4997323;28;20472;-77
2020/12/15 11:21:47;;;;;;;14.98;10.93;;;;;;;6.89;93.27;101044.53;5014617;28;20034;-77
2020/12/15 11:24:12;;;;;;;11.25;9.18;;;;;;;6.98;92.76;101032.59;5012989;28;20037;-76
2020/12/15 11:26:38;;;;;;;12.30;9.10;;;;;;;7.09;93.09;101032.59;4987738;28;20042;-76
2020/12/15 11:29:03;;;;;;;13.77;9.90;;;;;;;7.09;92.78;101026.56;4994034;28;20547;-76
2020/12/15 11:31:29;;;;;;;11.05;8.75;;;;;;;7.17;92.11;101013.75;5004987;28;20034;-77
2020/12/15 11:33:54;;;;;;;14.20;9.10;;;;;;;7.20;91.79;101035.22;4976570;28;20098;-77
2020/12/15 11:36:20;;;;;;;11.85;8.43;;;;;;;7.20;91.94;101027.41;4980221;28;20405;-77